sensor_id;sensor_type;location;lat;lon;timestamp;pressure;altitude;pressure_sealevel;temperature;humidity
20942;BME280;10630;53.734;10.282;2023-01-29T00:02:03;102242.66;;;9.38;74.20
20942;BME280;10630;53.734;10.282;2023-01-29T00:04:33;102240.44;;;9.32;71.87
20942;BME280;10630;53.734;10.282;2023-01-29T00:07:07;102227.53;;;9.16;73.88
20942;BME280;10630;53.734;10.282;2023-01-29T00:09:45;102230.81;;;9.31;73.85
20942;BME280;10630;53.734;10.282;2023-01-29T00:12:15;102231.16;;;9.93;70.73
20942;BME280;10630;53.734;10.282;2023-01-29T00:14:41;102230.53;;;9.68;71.34
20942;BME280;10630;53.734;10.282;2023-01-29T00:17:18;102235.16;;;9.43;71.37
20942;BME280;10630;53.734;10.282;2023-01-29T00:19:45;102224.72;;;9.63;72.22
20942;BME280;10630;53.734;10.282;2023-01-29T00:22:15;102219.53;;;9.73;71.41
20942;BME280;10630;53.734;10.282;2023-01-29T00:24:42;102215.50;;;9.78;72.00
20942;BME280;10630;53.734;10.282;2023-01-29T00:27:09;102218.16;;;9.78;71.48
20942;BME280;10630;53.734;10.282;2023-01-29T00:29:36;102212.00;;;9.78;71.11
20942;BME280;10630;53.734;10.282;2023-01-29T00:32:07;102200.88;;;9.84;71.20
20942;BME280;10630;53.734;10.282;2023-01-29T00:34:37;102200.09;;;10.26;69.87
20942;BME280;10630;53.734;10.282;2023-01-29T00:37:06;102206.78;;;9.88;69.44
20942;BME280;10630;53.734;10.282;2023-01-29T00:39:34;102206.69;;;9.66;70.32
20942;BME280;10630;53.734;10.282;2023-01-29T00:42:16;102208.63;;;10.08;69.10
20942;BME280;10630;53.734;10.282;2023-01-29T00:45:02;102206.16;;;10.17;68.77
20942;BME280;10630;53.734;10.282;2023-01-29T00:47:28;102203.00;;;9.46;72.24
20942;BME280;10630;53.734;10.282;2023-01-29T00:50:02;102199.44;;;10.12;69.98
20942;BME280;10630;53.734;10.282;2023-01-29T00:52:30;102205.81;;;9.77;72.47
20942;BME280;10630;53.734;10.282;2023-01-29T00:55:05;102209.91;;;9.38;72.24
20942;BME280;10630;53.734;10.282;2023-01-29T00:57:33;102215.13;;;10.16;71.24
20942;BME280;10630;53.734;10.282;2023-01-29T01:00:01;102222.41;;;8.67;70.99
20942;BME280;10630;53.734;10.282;2023-01-29T01:02:29;102214.50;;;9.01;74.96
20942;BME280;10630;53.734;10.282;2023-01-29T01:05:15;102216.31;;;9.35;74.04
20942;BME280;10630;53.734;10.282;2023-01-29T01:07:47;102213.09;;;9.75;73.44
20942;BME280;10630;53.734;10.282;2023-01-29T01:10:17;102206.16;;;9.52;72.96
20942;BME280;10630;53.734;10.282;2023-01-29T01:12:48;102203.63;;;9.50;73.94
20942;BME280;10630;53.734;10.282;2023-01-29T01:15:16;102195.91;;;9.13;73.20
20942;BME280;10630;53.734;10.282;2023-01-29T01:17:43;102204.56;;;9.93;73.25
20942;BME280;10630;53.734;10.282;2023-01-29T01:20:14;102199.84;;;9.96;71.42
20942;BME280;10630;53.734;10.282;2023-01-29T01:22:42;102208.00;;;8.47;74.00
20942;BME280;10630;53.734;10.282;2023-01-29T01:25:12;102206.63;;;9.34;75.31
20942;BME280;10630;53.734;10.282;2023-01-29T01:27:39;102206.09;;;9.74;74.31
20942;BME280;10630;53.734;10.282;2023-01-29T01:30:07;102209.50;;;9.65;72.88
20942;BME280;10630;53.734;10.282;2023-01-29T01:32:41;102208.69;;;9.42;74.71
20942;BME280;10630;53.734;10.282;2023-01-29T01:35:08;102203.03;;;9.35;75.22
20942;BME280;10630;53.734;10.282;2023-01-29T01:37:45;102196.50;;;8.82;75.62
20942;BME280;10630;53.734;10.282;2023-01-29T01:40:12;102190.16;;;9.63;74.96
20942;BME280;10630;53.734;10.282;2023-01-29T01:42:45;102196.34;;;9.52;73.61
20942;BME280;10630;53.734;10.282;2023-01-29T01:45:26;102195.47;;;9.74;74.00
20942;BME280;10630;53.734;10.282;2023-01-29T01:47:55;102192.88;;;9.84;72.48
20942;BME280;10630;53.734;10.282;2023-01-29T01:53:08;102183.59;;;10.32;70.58
20942;BME280;10630;53.734;10.282;2023-01-29T01:55:47;102191.66;;;8.87;73.84
20942;BME280;10630;53.734;10.282;2023-01-29T01:58:25;102196.94;;;9.56;74.60
20942;BME280;10630;53.734;10.282;2023-01-29T02:00:52;102189.63;;;9.80;73.72
20942;BME280;10630;53.734;10.282;2023-01-29T02:03:23;102195.00;;;9.58;72.98
20942;BME280;10630;53.734;10.282;2023-01-29T02:06:08;102188.59;;;9.93;73.73
20942;BME280;10630;53.734;10.282;2023-01-29T02:08:59;102187.81;;;9.37;77.99
20942;BME280;10630;53.734;10.282;2023-01-29T02:11:46;102179.59;;;9.84;75.09
20942;BME280;10630;53.734;10.282;2023-01-29T02:14:12;102176.19;;;9.49;74.27
20942;BME280;10630;53.734;10.282;2023-01-29T02:16:39;102171.47;;;9.86;72.83
20942;BME280;10630;53.734;10.282;2023-01-29T02:19:09;102171.63;;;9.29;74.84
20942;BME280;10630;53.734;10.282;2023-01-29T02:37:17;102160.16;;;8.49;80.77
20942;BME280;10630;53.734;10.282;2023-01-29T02:39:59;102153.03;;;9.29;79.50
20942;BME280;10630;53.734;10.282;2023-01-29T02:42:32;102155.72;;;9.61;77.90
20942;BME280;10630;53.734;10.282;2023-01-29T02:50:03;102147.16;;;9.58;75.44
20942;BME280;10630;53.734;10.282;2023-01-29T02:52:34;102148.44;;;9.75;75.11
20942;BME280;10630;53.734;10.282;2023-01-29T02:55:04;102128.84;;;9.32;73.84
20942;BME280;10630;53.734;10.282;2023-01-29T02:57:35;102136.72;;;9.98;75.44
20942;BME280;10630;53.734;10.282;2023-01-29T03:00:06;102139.19;;;9.58;76.21
20942;BME280;10630;53.734;10.282;2023-01-29T03:02:51;102125.06;;;9.57;76.18
20942;BME280;10630;53.734;10.282;2023-01-29T03:05:25;102126.13;;;9.66;75.42
20942;BME280;10630;53.734;10.282;2023-01-29T03:07:55;102124.78;;;9.28;77.29
20942;BME280;10630;53.734;10.282;2023-01-29T03:10:30;102117.56;;;9.07;79.37
20942;BME280;10630;53.734;10.282;2023-01-29T03:13:02;102106.31;;;9.59;77.52
20942;BME280;10630;53.734;10.282;2023-01-29T03:15:33;102097.47;;;9.26;81.30
20942;BME280;10630;53.734;10.282;2023-01-29T03:18:13;102103.66;;;9.15;78.76
20942;BME280;10630;53.734;10.282;2023-01-29T03:20:42;102108.88;;;8.60;83.61
20942;BME280;10630;53.734;10.282;2023-01-29T03:23:16;102101.38;;;9.10;81.47
20942;BME280;10630;53.734;10.282;2023-01-29T03:25:50;102098.66;;;9.33;78.32
20942;BME280;10630;53.734;10.282;2023-01-29T03:28:38;102096.19;;;9.53;76.91
20942;BME280;10630;53.734;10.282;2023-01-29T03:31:26;102089.75;;;9.88;75.32
20942;BME280;10630;53.734;10.282;2023-01-29T03:34:15;102092.88;;;9.93;76.49
20942;BME280;10630;53.734;10.282;2023-01-29T03:37:01;102089.78;;;9.23;79.76
20942;BME280;10630;53.734;10.282;2023-01-29T03:39:29;102084.13;;;9.48;81.14
20942;BME280;10630;53.734;10.282;2023-01-29T03:42:01;102089.09;;;9.74;77.35
20942;BME280;10630;53.734;10.282;2023-01-29T03:44:37;102084.97;;;9.81;76.55
20942;BME280;10630;53.734;10.282;2023-01-29T03:47:11;102093.00;;;10.12;74.53
20942;BME280;10630;53.734;10.282;2023-01-29T03:55:09;102061.09;;;9.38;76.47
20942;BME280;10630;53.734;10.282;2023-01-29T04:02:37;102070.81;;;9.48;78.44
20942;BME280;10630;53.734;10.282;2023-01-29T04:05:10;102070.28;;;9.66;77.12
20942;BME280;10630;53.734;10.282;2023-01-29T04:07:39;102075.09;;;9.40;78.82
20942;BME280;10630;53.734;10.282;2023-01-29T04:10:08;102075.34;;;9.90;77.94
20942;BME280;10630;53.734;10.282;2023-01-29T04:12:38;102072.81;;;9.24;78.63
20942;BME280;10630;53.734;10.282;2023-01-29T04:15:06;102069.53;;;9.75;79.20
20942;BME280;10630;53.734;10.282;2023-01-29T04:17:38;102065.03;;;10.18;75.39
20942;BME280;10630;53.734;10.282;2023-01-29T04:20:07;102064.38;;;10.05;74.88
20942;BME280;10630;53.734;10.282;2023-01-29T04:22:36;102083.28;;;9.04;80.36
20942;BME280;10630;53.734;10.282;2023-01-29T04:25:05;102066.56;;;9.25;81.11
20942;BME280;10630;53.734;10.282;2023-01-29T04:30:20;102069.75;;;9.72;77.10
20942;BME280;10630;53.734;10.282;2023-01-29T04:38:39;102072.88;;;9.77;78.32
20942;BME280;10630;53.734;10.282;2023-01-29T04:43:44;102077.59;;;9.53;78.69
20942;BME280;10630;53.734;10.282;2023-01-29T04:46:48;102077.63;;;9.41;79.84
20942;BME280;10630;53.734;10.282;2023-01-29T04:49:14;102086.63;;;9.61;79.03
20942;BME280;10630;53.734;10.282;2023-01-29T04:51:48;102083.44;;;10.31;74.91
20942;BME280;10630;53.734;10.282;2023-01-29T04:54:22;102085.09;;;9.47;78.56
20942;BME280;10630;53.734;10.282;2023-01-29T04:57:09;102069.50;;;10.18;75.19
20942;BME280;10630;53.734;10.282;2023-01-29T04:59:46;102067.75;;;10.28;74.79
20942;BME280;10630;53.734;10.282;2023-01-29T05:02:17;102065.19;;;9.95;76.31
20942;BME280;10630;53.734;10.282;2023-01-29T05:04:45;102066.75;;;9.98;76.32
20942;BME280;10630;53.734;10.282;2023-01-29T05:07:17;102064.81;;;9.68;76.10
20942;BME280;10630;53.734;10.282;2023-01-29T05:09:47;102065.78;;;8.90;79.44
20942;BME280;10630;53.734;10.282;2023-01-29T05:12:14;102047.66;;;9.93;77.56
20942;BME280;10630;53.734;10.282;2023-01-29T05:14:43;102059.06;;;9.62;75.26
20942;BME280;10630;53.734;10.282;2023-01-29T05:17:13;102054.34;;;9.66;75.48
20942;BME280;10630;53.734;10.282;2023-01-29T05:19:41;102049.31;;;9.52;76.02
20942;BME280;10630;53.734;10.282;2023-01-29T05:22:10;102046.97;;;9.91;77.33
20942;BME280;10630;53.734;10.282;2023-01-29T05:24:41;102055.25;;;9.76;77.14
20942;BME280;10630;53.734;10.282;2023-01-29T05:27:12;102069.97;;;9.80;74.83
20942;BME280;10630;53.734;10.282;2023-01-29T05:30:01;102061.06;;;9.49;78.22
20942;BME280;10630;53.734;10.282;2023-01-29T05:32:28;102045.94;;;9.49;81.72
20942;BME280;10630;53.734;10.282;2023-01-29T05:34:55;102051.47;;;9.58;78.32
20942;BME280;10630;53.734;10.282;2023-01-29T05:37:21;102058.81;;;10.08;77.81
20942;BME280;10630;53.734;10.282;2023-01-29T05:39:48;102042.13;;;10.27;74.68
20942;BME280;10630;53.734;10.282;2023-01-29T05:42:15;102048.50;;;9.72;76.32
20942;BME280;10630;53.734;10.282;2023-01-29T05:44:41;102043.53;;;9.79;76.20
20942;BME280;10630;53.734;10.282;2023-01-29T05:47:08;102048.25;;;9.75;74.55
20942;BME280;10630;53.734;10.282;2023-01-29T05:49:35;102042.41;;;9.81;75.55
20942;BME280;10630;53.734;10.282;2023-01-29T05:52:04;102046.00;;;9.38;74.69
20942;BME280;10630;53.734;10.282;2023-01-29T05:54:30;102058.41;;;8.94;79.62
20942;BME280;10630;53.734;10.282;2023-01-29T05:56:57;102058.84;;;9.22;81.55
20942;BME280;10630;53.734;10.282;2023-01-29T05:59:24;102062.53;;;9.95;77.70
20942;BME280;10630;53.734;10.282;2023-01-29T06:01:51;102060.84;;;8.74;80.21
20942;BME280;10630;53.734;10.282;2023-01-29T06:04:19;102059.66;;;9.66;78.51
20942;BME280;10630;53.734;10.282;2023-01-29T06:06:46;102050.19;;;9.73;76.48
20942;BME280;10630;53.734;10.282;2023-01-29T06:09:13;102037.88;;;9.07;80.06
20942;BME280;10630;53.734;10.282;2023-01-29T06:11:40;102030.59;;;9.74;78.90
20942;BME280;10630;53.734;10.282;2023-01-29T06:14:07;102015.47;;;9.32;77.85
20942;BME280;10630;53.734;10.282;2023-01-29T06:16:34;102019.44;;;9.59;76.67
20942;BME280;10630;53.734;10.282;2023-01-29T06:19:01;102016.78;;;10.02;76.79
20942;BME280;10630;53.734;10.282;2023-01-29T06:21:30;102012.91;;;9.85;75.19
20942;BME280;10630;53.734;10.282;2023-01-29T06:23:57;102016.66;;;9.82;75.24
20942;BME280;10630;53.734;10.282;2023-01-29T06:26:23;102017.25;;;10.17;72.48
20942;BME280;10630;53.734;10.282;2023-01-29T06:28:50;102004.69;;;9.97;72.62
20942;BME280;10630;53.734;10.282;2023-01-29T06:31:17;102000.38;;;9.75;74.35
20942;BME280;10630;53.734;10.282;2023-01-29T06:34:02;101995.91;;;9.22;77.52
20942;BME280;10630;53.734;10.282;2023-01-29T06:36:37;101999.22;;;9.68;76.32
20942;BME280;10630;53.734;10.282;2023-01-29T06:39:10;101988.31;;;9.71;75.45
20942;BME280;10630;53.734;10.282;2023-01-29T06:41:41;101995.19;;;9.95;73.90
20942;BME280;10630;53.734;10.282;2023-01-29T06:44:11;101989.94;;;9.41;74.50
20942;BME280;10630;53.734;10.282;2023-01-29T06:46:43;101975.06;;;9.81;75.04
20942;BME280;10630;53.734;10.282;2023-01-29T06:49:14;101978.78;;;9.47;74.96
20942;BME280;10630;53.734;10.282;2023-01-29T06:51:41;101986.44;;;9.41;76.00
20942;BME280;10630;53.734;10.282;2023-01-29T06:54:11;101976.47;;;9.75;73.26
20942;BME280;10630;53.734;10.282;2023-01-29T06:56:44;101990.56;;;9.33;73.30
20942;BME280;10630;53.734;10.282;2023-01-29T06:59:16;101984.25;;;9.13;75.33
20942;BME280;10630;53.734;10.282;2023-01-29T07:01:49;101985.16;;;9.24;76.35
20942;BME280;10630;53.734;10.282;2023-01-29T07:04:19;101973.91;;;9.31;76.69
20942;BME280;10630;53.734;10.282;2023-01-29T07:06:49;101974.59;;;9.12;75.43
20942;BME280;10630;53.734;10.282;2023-01-29T07:09:18;101983.56;;;9.75;74.93
20942;BME280;10630;53.734;10.282;2023-01-29T07:11:51;101972.25;;;9.52;74.54
20942;BME280;10630;53.734;10.282;2023-01-29T07:14:24;101982.84;;;9.94;73.81
20942;BME280;10630;53.734;10.282;2023-01-29T07:16:52;101984.31;;;9.23;73.61
20942;BME280;10630;53.734;10.282;2023-01-29T07:19:19;101982.22;;;9.38;73.73
20942;BME280;10630;53.734;10.282;2023-01-29T07:21:52;101984.06;;;8.94;76.62
20942;BME280;10630;53.734;10.282;2023-01-29T07:24:22;101980.56;;;9.26;75.67
20942;BME280;10630;53.734;10.282;2023-01-29T07:26:51;101969.78;;;9.60;74.34
20942;BME280;10630;53.734;10.282;2023-01-29T07:29:20;101953.44;;;9.43;74.20
20942;BME280;10630;53.734;10.282;2023-01-29T07:31:50;101942.84;;;9.11;74.13
20942;BME280;10630;53.734;10.282;2023-01-29T07:34:17;101940.41;;;9.19;74.88
20942;BME280;10630;53.734;10.282;2023-01-29T07:36:46;101939.63;;;8.96;76.30
20942;BME280;10630;53.734;10.282;2023-01-29T07:39:19;101944.78;;;9.09;75.37
20942;BME280;10630;53.734;10.282;2023-01-29T07:41:48;101950.81;;;9.11;75.21
20942;BME280;10630;53.734;10.282;2023-01-29T07:44:15;101945.00;;;9.17;76.17
20942;BME280;10630;53.734;10.282;2023-01-29T07:46:42;101944.63;;;9.64;74.19
20942;BME280;10630;53.734;10.282;2023-01-29T07:49:09;101945.38;;;9.97;72.91
20942;BME280;10630;53.734;10.282;2023-01-29T07:51:36;101955.97;;;9.66;73.28
20942;BME280;10630;53.734;10.282;2023-01-29T07:54:02;101952.25;;;9.78;73.34
20942;BME280;10630;53.734;10.282;2023-01-29T07:56:29;101947.06;;;9.13;73.96
20942;BME280;10630;53.734;10.282;2023-01-29T07:58:56;101942.34;;;8.84;75.18
20942;BME280;10630;53.734;10.282;2023-01-29T08:01:25;101943.72;;;9.54;76.08
20942;BME280;10630;53.734;10.282;2023-01-29T08:03:52;101940.75;;;9.68;74.16
20942;BME280;10630;53.734;10.282;2023-01-29T08:06:19;101940.22;;;9.74;72.91
20942;BME280;10630;53.734;10.282;2023-01-29T08:08:45;101939.41;;;8.99;73.21
20942;BME280;10630;53.734;10.282;2023-01-29T08:11:12;101941.81;;;8.58;74.90
20942;BME280;10630;53.734;10.282;2023-01-29T08:13:41;101936.56;;;9.33;75.73
20942;BME280;10630;53.734;10.282;2023-01-29T08:16:12;101926.31;;;9.28;74.35
20942;BME280;10630;53.734;10.282;2023-01-29T08:18:42;101931.66;;;9.28;74.29
20942;BME280;10630;53.734;10.282;2023-01-29T08:21:12;101935.13;;;8.75;77.14
20942;BME280;10630;53.734;10.282;2023-01-29T08:23:39;101934.09;;;9.84;73.33
20942;BME280;10630;53.734;10.282;2023-01-29T08:26:06;101936.84;;;8.97;75.77
20942;BME280;10630;53.734;10.282;2023-01-29T08:28:34;101933.00;;;9.44;76.17
20942;BME280;10630;53.734;10.282;2023-01-29T08:31:01;101935.31;;;9.79;75.10
20942;BME280;10630;53.734;10.282;2023-01-29T08:33:28;101934.00;;;9.22;75.46
20942;BME280;10630;53.734;10.282;2023-01-29T08:36:04;101931.97;;;8.70;78.57
20942;BME280;10630;53.734;10.282;2023-01-29T08:38:31;101936.69;;;9.74;75.27
20942;BME280;10630;53.734;10.282;2023-01-29T08:40:59;101937.84;;;9.17;76.48
20942;BME280;10630;53.734;10.282;2023-01-29T08:43:26;101929.56;;;9.74;74.60
20942;BME280;10630;53.734;10.282;2023-01-29T08:45:57;101932.53;;;9.50;74.63
20942;BME280;10630;53.734;10.282;2023-01-29T08:48:24;101927.84;;;9.63;75.68
20942;BME280;10630;53.734;10.282;2023-01-29T08:50:51;101930.13;;;9.99;72.67
20942;BME280;10630;53.734;10.282;2023-01-29T08:53:18;101935.03;;;9.52;72.57
20942;BME280;10630;53.734;10.282;2023-01-29T08:55:49;101930.34;;;9.65;72.98
20942;BME280;10630;53.734;10.282;2023-01-29T08:58:16;101931.66;;;9.49;72.62
20942;BME280;10630;53.734;10.282;2023-01-29T09:00:42;101932.19;;;8.90;75.15
20942;BME280;10630;53.734;10.282;2023-01-29T09:03:09;101932.53;;;9.17;75.26
20942;BME280;10630;53.734;10.282;2023-01-29T09:05:38;101935.84;;;9.94;73.42
20942;BME280;10630;53.734;10.282;2023-01-29T09:08:05;101942.16;;;9.51;72.98
20942;BME280;10630;53.734;10.282;2023-01-29T09:10:33;101935.06;;;8.86;76.43
20942;BME280;10630;53.734;10.282;2023-01-29T09:13:00;101933.38;;;9.81;76.12
20942;BME280;10630;53.734;10.282;2023-01-29T09:15:27;101936.13;;;10.01;73.38
20942;BME280;10630;53.734;10.282;2023-01-29T09:17:54;101927.63;;;9.34;75.84
20942;BME280;10630;53.734;10.282;2023-01-29T09:20:20;101926.19;;;9.72;75.85
20942;BME280;10630;53.734;10.282;2023-01-29T09:22:47;101926.91;;;9.32;76.20
20942;BME280;10630;53.734;10.282;2023-01-29T09:25:16;101921.03;;;9.07;77.05
20942;BME280;10630;53.734;10.282;2023-01-29T09:27:43;101925.91;;;8.58;80.35
20942;BME280;10630;53.734;10.282;2023-01-29T09:30:10;101922.97;;;9.47;79.26
20942;BME280;10630;53.734;10.282;2023-01-29T09:32:37;101915.47;;;9.53;76.66
20942;BME280;10630;53.734;10.282;2023-01-29T09:35:20;101903.91;;;9.42;75.80
20942;BME280;10630;53.734;10.282;2023-01-29T09:37:47;101899.13;;;9.15;77.45
20942;BME280;10630;53.734;10.282;2023-01-29T09:40:22;101898.97;;;9.16;78.18
20942;BME280;10630;53.734;10.282;2023-01-29T09:42:54;101888.72;;;9.75;76.40
20942;BME280;10630;53.734;10.282;2023-01-29T09:45:24;101889.63;;;9.33;76.92
20942;BME280;10630;53.734;10.282;2023-01-29T09:47:52;101889.56;;;9.55;75.87
20942;BME280;10630;53.734;10.282;2023-01-29T09:50:37;101877.97;;;9.56;76.07
20942;BME280;10630;53.734;10.282;2023-01-29T09:55:36;101881.13;;;9.71;78.92
20942;BME280;10630;53.734;10.282;2023-01-29T09:58:09;101868.31;;;9.55;75.67
20942;BME280;10630;53.734;10.282;2023-01-29T10:03:26;101864.06;;;9.00;78.88
20942;BME280;10630;53.734;10.282;2023-01-29T10:13:47;101852.59;;;9.21;76.82
20942;BME280;10630;53.734;10.282;2023-01-29T10:16:26;101847.81;;;9.14;79.67
20942;BME280;10630;53.734;10.282;2023-01-29T10:26:49;101819.91;;;9.51;78.72
20942;BME280;10630;53.734;10.282;2023-01-29T10:29:22;101813.97;;;8.42;79.39
20942;BME280;10630;53.734;10.282;2023-01-29T10:31:52;101811.91;;;9.51;81.37
20942;BME280;10630;53.734;10.282;2023-01-29T10:34:40;101816.94;;;9.44;79.53
20942;BME280;10630;53.734;10.282;2023-01-29T10:37:15;101817.63;;;9.46;81.81
20942;BME280;10630;53.734;10.282;2023-01-29T10:39:44;101821.97;;;9.47;80.13
20942;BME280;10630;53.734;10.282;2023-01-29T10:42:16;101811.69;;;9.64;78.03
20942;BME280;10630;53.734;10.282;2023-01-29T10:44:58;101812.31;;;9.77;78.43
20942;BME280;10630;53.734;10.282;2023-01-29T11:02:47;101782.16;;;10.08;78.88
20942;BME280;10630;53.734;10.282;2023-01-29T11:07:54;101787.69;;;9.75;81.15
20942;BME280;10630;53.734;10.282;2023-01-29T11:10:25;101788.84;;;8.78;87.21
20942;BME280;10630;53.734;10.282;2023-01-29T11:12:52;101781.50;;;9.34;83.44
20942;BME280;10630;53.734;10.282;2023-01-29T11:15:27;101777.44;;;9.30;81.39
20942;BME280;10630;53.734;10.282;2023-01-29T11:18:02;101768.94;;;9.87;80.15
20942;BME280;10630;53.734;10.282;2023-01-29T11:20:29;101773.38;;;9.35;83.09
20942;BME280;10630;53.734;10.282;2023-01-29T11:22:56;101762.97;;;10.24;78.91
20942;BME280;10630;53.734;10.282;2023-01-29T11:25:23;101768.50;;;9.72;77.75
20942;BME280;10630;53.734;10.282;2023-01-29T11:27:54;101764.38;;;10.08;78.66
20942;BME280;10630;53.734;10.282;2023-01-29T11:30:24;101762.34;;;9.71;78.22
20942;BME280;10630;53.734;10.282;2023-01-29T11:35:25;101755.50;;;9.78;81.37
20942;BME280;10630;53.734;10.282;2023-01-29T11:37:51;101743.19;;;9.37;81.30
20942;BME280;10630;53.734;10.282;2023-01-29T11:42:47;101732.75;;;9.55;80.75
20942;BME280;10630;53.734;10.282;2023-01-29T11:45:24;101726.16;;;10.09;78.78
20942;BME280;10630;53.734;10.282;2023-01-29T11:47:52;101730.50;;;9.91;80.19
20942;BME280;10630;53.734;10.282;2023-01-29T11:50:26;101725.13;;;9.30;82.83
20942;BME280;10630;53.734;10.282;2023-01-29T11:52:54;101720.94;;;7.78;89.02
20942;BME280;10630;53.734;10.282;2023-01-29T11:55:25;101718.69;;;9.23;86.27
20942;BME280;10630;53.734;10.282;2023-01-29T12:00:26;101705.50;;;9.53;85.52
20942;BME280;10630;53.734;10.282;2023-01-29T12:05:30;101693.97;;;10.12;79.99
20942;BME280;10630;53.734;10.282;2023-01-29T12:07:57;101692.41;;;9.90;76.88
20942;BME280;10630;53.734;10.282;2023-01-29T12:10:33;101678.16;;;10.11;77.71
20942;BME280;10630;53.734;10.282;2023-01-29T12:15:31;101670.94;;;9.53;81.58
20942;BME280;10630;53.734;10.282;2023-01-29T12:20:42;101663.84;;;10.02;80.71
20942;BME280;10630;53.734;10.282;2023-01-29T12:28:40;101651.09;;;10.35;77.71
20942;BME280;10630;53.734;10.282;2023-01-29T12:36:39;101630.94;;;9.64;79.04
20942;BME280;10630;53.734;10.282;2023-01-29T12:39:10;101628.72;;;9.69;81.11
20942;BME280;10630;53.734;10.282;2023-01-29T12:41:40;101623.28;;;9.10;83.11
20942;BME280;10630;53.734;10.282;2023-01-29T12:46:55;101611.63;;;9.62;82.99
20942;BME280;10630;53.734;10.282;2023-01-29T12:49:23;101611.06;;;9.97;80.91
20942;BME280;10630;53.734;10.282;2023-01-29T12:54:26;101618.09;;;8.99;81.13
20942;BME280;10630;53.734;10.282;2023-01-29T12:56:58;101602.63;;;8.83;83.37
20942;BME280;10630;53.734;10.282;2023-01-29T13:01:56;101601.38;;;9.28;81.36
20942;BME280;10630;53.734;10.282;2023-01-29T13:04:29;101595.16;;;9.78;80.64
20942;BME280;10630;53.734;10.282;2023-01-29T13:07:07;101592.63;;;9.86;78.44
20942;BME280;10630;53.734;10.282;2023-01-29T13:09:37;101589.47;;;10.50;75.54
20942;BME280;10630;53.734;10.282;2023-01-29T13:12:10;101581.69;;;9.79;76.57
20942;BME280;10630;53.734;10.282;2023-01-29T13:14:43;101568.34;;;10.28;77.27
20942;BME280;10630;53.734;10.282;2023-01-29T13:17:18;101567.00;;;10.62;73.67
20942;BME280;10630;53.734;10.282;2023-01-29T13:19:49;101561.53;;;9.96;74.27
20942;BME280;10630;53.734;10.282;2023-01-29T13:22:35;101562.09;;;9.31;77.81
20942;BME280;10630;53.734;10.282;2023-01-29T13:25:03;101568.53;;;9.88;76.80
20942;BME280;10630;53.734;10.282;2023-01-29T13:27:32;101559.69;;;10.17;76.25
20942;BME280;10630;53.734;10.282;2023-01-29T13:30:01;101557.28;;;10.23;73.51
20942;BME280;10630;53.734;10.282;2023-01-29T13:32:29;101551.75;;;9.97;76.23
20942;BME280;10630;53.734;10.282;2023-01-29T13:34:58;101553.56;;;10.06;74.74
20942;BME280;10630;53.734;10.282;2023-01-29T13:37:32;101553.94;;;10.11;75.11
20942;BME280;10630;53.734;10.282;2023-01-29T13:40:00;101549.50;;;9.92;74.04
20942;BME280;10630;53.734;10.282;2023-01-29T13:42:44;101539.34;;;10.35;75.04
20942;BME280;10630;53.734;10.282;2023-01-29T13:47:46;101532.53;;;10.23;74.96
20942;BME280;10630;53.734;10.282;2023-01-29T13:57:50;101526.66;;;10.09;74.57
20942;BME280;10630;53.734;10.282;2023-01-29T14:05:37;101508.91;;;9.90;74.36
20942;BME280;10630;53.734;10.282;2023-01-29T14:10:35;101506.88;;;9.64;77.35
20942;BME280;10630;53.734;10.282;2023-01-29T14:15:32;101490.72;;;10.33;75.17
20942;BME280;10630;53.734;10.282;2023-01-29T14:18:01;101495.25;;;9.65;76.16
20942;BME280;10630;53.734;10.282;2023-01-29T14:20:31;101482.25;;;10.20;74.48
20942;BME280;10630;53.734;10.282;2023-01-29T14:25:45;101478.63;;;10.21;73.92
20942;BME280;10630;53.734;10.282;2023-01-29T14:28:14;101461.94;;;9.71;75.01
20942;BME280;10630;53.734;10.282;2023-01-29T14:30:53;101465.63;;;9.50;75.89
20942;BME280;10630;53.734;10.282;2023-01-29T14:33:24;101467.97;;;9.73;75.39
20942;BME280;10630;53.734;10.282;2023-01-29T14:35:57;101456.38;;;9.64;76.77
20942;BME280;10630;53.734;10.282;2023-01-29T14:38:29;101463.59;;;9.82;73.27
20942;BME280;10630;53.734;10.282;2023-01-29T14:41:04;101454.78;;;9.81;74.22
20942;BME280;10630;53.734;10.282;2023-01-29T14:43:32;101457.69;;;9.98;75.38
20942;BME280;10630;53.734;10.282;2023-01-29T14:48:46;101452.97;;;9.72;75.99
20942;BME280;10630;53.734;10.282;2023-01-29T14:51:15;101455.56;;;9.34;77.38
20942;BME280;10630;53.734;10.282;2023-01-29T14:56:17;101447.72;;;9.33;79.00
20942;BME280;10630;53.734;10.282;2023-01-29T14:58:47;101445.72;;;9.74;78.07
20942;BME280;10630;53.734;10.282;2023-01-29T15:01:19;101441.28;;;9.35;77.59
20942;BME280;10630;53.734;10.282;2023-01-29T15:03:57;101438.91;;;10.00;76.37
20942;BME280;10630;53.734;10.282;2023-01-29T15:06:27;101436.47;;;9.69;76.99
20942;BME280;10630;53.734;10.282;2023-01-29T15:14:24;101433.75;;;9.21;78.66
20942;BME280;10630;53.734;10.282;2023-01-29T15:16:59;101437.22;;;9.61;76.99
20942;BME280;10630;53.734;10.282;2023-01-29T15:22:05;101431.75;;;9.62;77.29
20942;BME280;10630;53.734;10.282;2023-01-29T15:24:31;101412.41;;;9.70;76.91
20942;BME280;10630;53.734;10.282;2023-01-29T15:26:58;101424.84;;;9.79;74.88
20942;BME280;10630;53.734;10.282;2023-01-29T15:29:25;101418.66;;;9.22;78.05
20942;BME280;10630;53.734;10.282;2023-01-29T15:31:53;101409.66;;;9.52;77.55
20942;BME280;10630;53.734;10.282;2023-01-29T15:34:20;101408.25;;;10.33;74.77
20942;BME280;10630;53.734;10.282;2023-01-29T15:36:46;101395.47;;;8.94;75.88
20942;BME280;10630;53.734;10.282;2023-01-29T15:41:44;101387.53;;;9.61;78.04
20942;BME280;10630;53.734;10.282;2023-01-29T15:44:17;101378.66;;;9.33;76.35